createdAt,value
2023-11-18T00:02:04.592Z,6.83
2023-11-18T00:04:31.541Z,6.85
2023-11-18T00:06:59.998Z,6.94
2023-11-18T00:09:26.763Z,6.91
2023-11-18T00:11:54.940Z,6.93
2023-11-18T00:14:22.224Z,6.92
2023-11-18T00:16:49.083Z,6.94
2023-11-18T00:19:15.703Z,6.92
2023-11-18T00:21:43.657Z,6.82
2023-11-18T00:24:10.551Z,6.90
2023-11-18T00:26:37.244Z,6.87
2023-11-18T00:29:05.660Z,6.89
2023-11-18T00:31:32.498Z,6.93
2023-11-18T00:33:59.220Z,6.92
2023-11-18T00:36:25.819Z,6.91
2023-11-18T00:38:52.439Z,4.89
2023-11-18T00:41:19.040Z,5.63
2023-11-18T00:43:45.785Z,6.68
2023-11-18T00:46:13.959Z,6.82
2023-11-18T00:48:40.647Z,6.85
2023-11-18T00:51:07.524Z,6.89
2023-11-18T00:53:34.157Z,6.86
2023-11-18T00:56:01.963Z,6.85
2023-11-18T00:58:29.960Z,6.71
2023-11-18T01:00:56.665Z,6.56
2023-11-18T01:03:24.791Z,6.65
2023-11-18T01:05:51.688Z,6.66
2023-11-18T01:08:18.474Z,6.62
2023-11-18T01:10:45.286Z,5.86
2023-11-18T01:13:12.060Z,6.41
2023-11-18T01:15:38.722Z,5.86
2023-11-18T01:18:07.528Z,6.64
2023-11-18T01:20:35.644Z,6.62
2023-11-18T01:23:02.369Z,6.73
2023-11-18T01:25:29.153Z,6.81
2023-11-18T01:27:55.804Z,6.73
2023-11-18T01:30:24.664Z,6.73
2023-11-18T01:32:51.479Z,6.66
2023-11-18T01:35:18.354Z,6.69
2023-11-18T01:37:46.390Z,6.32
2023-11-18T01:40:14.200Z,6.48
2023-11-18T01:42:43.400Z,6.68
2023-11-18T01:45:12.916Z,6.45
2023-11-18T01:47:41.076Z,5.87
2023-11-18T01:50:10.929Z,6.59
2023-11-18T01:52:37.996Z,6.73
2023-11-18T01:55:09.526Z,6.75
2023-11-18T01:57:36.372Z,6.51
2023-11-18T02:02:42.936Z,6.63
2023-11-18T02:05:09.776Z,6.81
2023-11-18T02:07:38.401Z,6.79
2023-11-18T02:10:10.420Z,6.80
2023-11-18T02:12:44.357Z,6.77
2023-11-18T02:15:13.831Z,6.77
2023-11-18T02:17:46.098Z,6.80
2023-11-18T02:20:22.332Z,6.79
2023-11-18T02:22:49.824Z,6.78
2023-11-18T02:25:19.714Z,6.76
2023-11-18T02:27:49.050Z,6.75
2023-11-18T02:30:18.176Z,6.82
2023-11-18T02:32:49.099Z,6.79
2023-11-18T02:35:21.425Z,6.76
2023-11-18T02:37:50.523Z,6.80
2023-11-18T02:40:21.164Z,6.67
2023-11-18T02:42:54.050Z,6.67
2023-11-18T02:45:22.079Z,6.74
2023-11-18T02:47:49.894Z,6.65
2023-11-18T02:50:16.878Z,6.76
2023-11-18T02:52:43.767Z,6.75
2023-11-18T02:55:10.920Z,6.80
2023-11-18T02:57:37.989Z,6.85
2023-11-18T03:00:13.342Z,6.81
2023-11-18T03:02:40.556Z,6.76
2023-11-18T03:05:08.758Z,6.64
2023-11-18T03:07:35.531Z,6.70
2023-11-18T03:10:02.215Z,6.76
2023-11-18T03:12:29.274Z,6.73
2023-11-18T03:14:56.419Z,6.80
2023-11-18T03:17:24.442Z,6.80
2023-11-18T03:19:51.714Z,6.79
2023-11-18T03:22:18.569Z,6.80
2023-11-18T03:24:45.221Z,6.75
2023-11-18T03:27:12.083Z,6.74
2023-11-18T03:29:38.823Z,6.82
2023-11-18T03:32:06.737Z,6.76
2023-11-18T03:34:35.050Z,6.75
2023-11-18T03:37:01.789Z,6.76
2023-11-18T03:39:28.686Z,6.58
2023-11-18T03:41:58.111Z,6.67
2023-11-18T03:44:27.528Z,6.73
2023-11-18T03:46:54.125Z,6.83
2023-11-18T03:49:21.974Z,6.75
2023-11-18T03:51:50.336Z,6.73
2023-11-18T03:54:16.921Z,6.74
2023-11-18T03:56:43.523Z,6.64
2023-11-18T03:59:10.595Z,6.54
2023-11-18T04:01:37.453Z,5.50
2023-11-18T04:04:05.378Z,6.42
2023-11-18T04:06:33.352Z,6.38
2023-11-18T04:09:01.340Z,6.63
2023-11-18T04:11:27.982Z,6.65
2023-11-18T04:13:54.655Z,6.67
2023-11-18T04:16:21.503Z,6.70
2023-11-18T04:18:48.249Z,6.70
2023-11-18T04:21:15.057Z,6.67
2023-11-18T04:23:43.352Z,6.70
2023-11-18T04:26:11.454Z,5.58
2023-11-18T04:28:38.461Z,6.56
2023-11-18T04:31:08.924Z,6.66
2023-11-18T04:33:35.592Z,6.70
2023-11-18T04:36:02.532Z,6.67
2023-11-18T04:38:29.421Z,6.67
2023-11-18T04:40:56.372Z,6.68
2023-11-18T04:43:34.483Z,6.65
2023-11-18T04:46:06.708Z,6.71
2023-11-18T04:48:34.266Z,6.68
2023-11-18T04:51:01.305Z,6.72
2023-11-18T04:53:27.924Z,6.54
2023-11-18T04:55:54.656Z,6.38
2023-11-18T04:58:21.977Z,6.37
2023-11-18T05:00:49.967Z,6.59
2023-11-18T05:03:17.429Z,6.60
2023-11-18T05:05:44.776Z,6.66
2023-11-18T05:08:20.245Z,6.65
2023-11-18T05:10:48.349Z,6.65
2023-11-18T05:13:17.508Z,6.66
2023-11-18T05:15:46.257Z,6.64
2023-11-18T05:18:15.920Z,6.66
2023-11-18T05:20:43.644Z,6.71
2023-11-18T05:23:11.137Z,6.65
2023-11-18T05:25:38.197Z,6.66
2023-11-18T05:28:06.157Z,6.73
2023-11-18T05:30:32.877Z,6.53
2023-11-18T05:32:59.626Z,6.62
2023-11-18T05:35:29.623Z,6.66
2023-11-18T05:37:56.574Z,6.68
2023-11-18T05:40:23.952Z,6.64
2023-11-18T05:42:52.896Z,6.63
2023-11-18T05:45:29.186Z,6.61
2023-11-18T05:47:56.611Z,6.64
2023-11-18T05:50:23.374Z,6.64
2023-11-18T05:52:51.455Z,6.70
2023-11-18T05:55:18.161Z,6.68
2023-11-18T05:57:46.049Z,6.64
2023-11-18T06:00:20.988Z,6.63
2023-11-18T06:02:52.841Z,6.60
2023-11-18T06:05:19.734Z,6.60
2023-11-18T06:07:48.441Z,6.67
2023-11-18T06:10:16.527Z,6.67
2023-11-18T06:12:43.145Z,6.68
2023-11-18T06:15:15.539Z,6.67
2023-11-18T06:17:45.400Z,6.65
2023-11-18T06:20:15.321Z,6.70
2023-11-18T06:22:42.005Z,6.64
2023-11-18T06:25:09.834Z,6.67
2023-11-18T06:27:37.776Z,6.66
2023-11-18T06:30:05.279Z,6.64
2023-11-18T06:32:32.281Z,6.67
2023-11-18T06:35:01.965Z,6.65
2023-11-18T06:37:33.284Z,6.67
2023-11-18T06:40:00.007Z,6.65
2023-11-18T06:42:26.634Z,6.61
2023-11-18T06:44:54.930Z,6.65
2023-11-18T06:47:21.694Z,6.62
2023-11-18T06:49:53.420Z,6.59
2023-11-18T06:52:20.214Z,6.44
2023-11-18T06:54:46.854Z,5.95
2023-11-18T06:57:13.527Z,5.93
2023-11-18T06:59:40.395Z,6.30
2023-11-18T07:02:08.439Z,6.55
2023-11-18T07:04:35.054Z,6.58
2023-11-18T07:07:02.899Z,6.60
2023-11-18T07:09:29.496Z,6.58
2023-11-18T07:11:57.179Z,6.59
2023-11-18T07:14:23.877Z,6.57
2023-11-18T07:16:50.581Z,6.58
2023-11-18T07:19:22.415Z,6.54
2023-11-18T07:21:50.461Z,6.57
2023-11-18T07:24:18.227Z,6.56
2023-11-18T07:26:46.274Z,6.56
2023-11-18T07:29:13.027Z,6.57
2023-11-18T07:31:39.717Z,6.15
2023-11-18T07:34:09.112Z,6.51
2023-11-18T07:36:37.081Z,6.68
2023-11-18T07:39:04.838Z,7.26
2023-11-18T07:41:33.768Z,7.13
2023-11-18T07:44:01.557Z,6.90
2023-11-18T07:46:29.940Z,7.75
2023-11-18T07:48:57.945Z,8.05
2023-11-18T07:51:25.710Z,8.79
2023-11-18T07:53:54.127Z,8.57
2023-11-18T07:56:23.538Z,9.22
2023-11-18T07:58:51.570Z,9.66
2023-11-18T08:01:18.806Z,10.52
2023-11-18T08:03:45.896Z,10.55
2023-11-18T08:06:13.537Z,10.40
2023-11-18T08:08:41.971Z,10.88
2023-11-18T08:11:12.017Z,10.39
2023-11-18T08:13:38.727Z,8.24
2023-11-18T08:16:08.398Z,8.40
2023-11-18T08:18:36.664Z,8.97
2023-11-18T08:21:04.093Z,10.12
2023-11-18T08:23:31.561Z,10.11
2023-11-18T08:25:58.334Z,9.27
2023-11-18T08:28:26.888Z,12.26
2023-11-18T08:30:54.002Z,12.10
2023-11-18T08:33:21.222Z,12.87
2023-11-18T08:35:48.762Z,10.50
2023-11-18T08:38:15.519Z,10.77
2023-11-18T08:40:43.977Z,9.66
2023-11-18T08:43:10.848Z,8.87
2023-11-18T08:45:38.788Z,9.94
2023-11-18T08:48:09.872Z,7.92
2023-11-18T08:50:37.837Z,9.02
2023-11-18T08:53:10.883Z,9.88
2023-11-18T08:55:52.485Z,8.57
2023-11-18T08:58:29.678Z,7.86
2023-11-18T09:01:06.891Z,9.08
2023-11-18T09:03:36.969Z,9.07
2023-11-18T09:06:06.661Z,9.48
2023-11-18T09:08:37.516Z,8.26
2023-11-18T09:11:09.228Z,9.32
2023-11-18T09:13:36.611Z,11.41
2023-11-18T09:16:12.269Z,10.72
2023-11-18T09:18:43.261Z,12.34
2023-11-18T09:21:16.190Z,11.47
2023-11-18T09:23:44.457Z,11.83
2023-11-18T09:26:11.688Z,11.77
2023-11-18T09:28:39.614Z,12.01
2023-11-18T09:31:12.473Z,10.02
2023-11-18T09:33:41.079Z,12.43
2023-11-18T09:36:09.293Z,10.44
2023-11-18T09:38:37.029Z,10.54
2023-11-18T09:41:08.533Z,11.79
2023-11-18T09:43:46.763Z,9.63
2023-11-18T09:46:16.005Z,9.17
2023-11-18T09:48:46.694Z,9.24
2023-11-18T09:51:22.284Z,11.02
2023-11-18T09:53:53.543Z,11.97
2023-11-18T09:56:35.411Z,11.16
2023-11-18T09:59:08.135Z,11.24
2023-11-18T10:01:43.980Z,11.41
2023-11-18T10:04:12.280Z,9.95
2023-11-18T10:06:42.040Z,10.03
2023-11-18T10:09:18.745Z,10.29
2023-11-18T10:11:48.001Z,8.76
2023-11-18T10:14:16.832Z,8.53
2023-11-18T10:16:48.557Z,8.70
2023-11-18T10:19:19.213Z,8.82
2023-11-18T10:21:50.576Z,9.43
2023-11-18T10:24:21.172Z,10.46
2023-11-18T10:26:58.858Z,9.25
2023-11-18T10:29:29.515Z,9.00
2023-11-18T10:32:17.099Z,10.43
2023-11-18T10:34:43.984Z,12.28
2023-11-18T10:37:12.081Z,11.38
2023-11-18T10:39:38.926Z,9.71
2023-11-18T10:42:06.319Z,8.94
2023-11-18T10:44:33.009Z,9.18
2023-11-18T10:47:00.185Z,11.20
2023-11-18T10:49:29.424Z,9.71
2023-11-18T10:51:57.629Z,10.52
2023-11-18T10:54:27.458Z,11.03
2023-11-18T10:56:58.000Z,13.38
2023-11-18T10:59:26.356Z,11.39
2023-11-18T11:01:53.329Z,11.39
2023-11-18T11:04:22.937Z,9.53
2023-11-18T11:06:54.796Z,9.01
2023-11-18T11:09:25.764Z,9.99
2023-11-18T11:11:55.453Z,8.32
2023-11-18T11:14:23.226Z,8.25
2023-11-18T11:16:55.222Z,8.37
2023-11-18T11:19:27.430Z,8.76
2023-11-18T11:22:02.757Z,9.64
2023-11-18T11:24:43.341Z,8.46
2023-11-18T11:27:18.534Z,8.58
2023-11-18T11:29:53.195Z,8.61
2023-11-18T11:32:31.509Z,8.39
2023-11-18T11:35:09.088Z,8.39
2023-11-18T11:37:39.102Z,8.61
2023-11-18T11:40:11.706Z,9.07
2023-11-18T11:42:41.250Z,9.03
2023-11-18T11:45:21.044Z,8.63
2023-11-18T11:47:51.388Z,8.12
2023-11-18T11:50:32.526Z,8.24
2023-11-18T11:53:08.431Z,7.73
2023-11-18T11:55:39.717Z,8.10
2023-11-18T11:58:26.611Z,7.90
2023-11-18T12:00:55.454Z,7.29
2023-11-18T12:03:23.807Z,7.48
2023-11-18T12:05:50.622Z,7.55
2023-11-18T12:08:19.797Z,8.17
2023-11-18T12:10:53.575Z,8.15
2023-11-18T12:13:21.157Z,8.03
2023-11-18T12:15:55.653Z,7.68
2023-11-18T12:18:23.234Z,7.96
2023-11-18T12:20:55.133Z,7.76
2023-11-18T12:23:26.912Z,7.89
2023-11-18T12:25:59.090Z,8.03
2023-11-18T12:28:35.417Z,8.00
2023-11-18T12:31:18.533Z,8.07
2023-11-18T12:34:01.851Z,8.05
2023-11-18T12:36:59.955Z,7.95
2023-11-18T12:40:14.412Z,8.16
2023-11-18T12:43:00.279Z,8.25
2023-11-18T12:46:21.084Z,8.15
2023-11-18T12:48:52.188Z,8.22
2023-11-18T12:51:21.852Z,8.13
2023-11-18T12:53:50.012Z,8.08
2023-11-18T12:56:20.245Z,8.23
2023-11-18T12:58:49.004Z,8.21
2023-11-18T13:01:17.185Z,8.30
2023-11-18T13:03:45.395Z,8.06
2023-11-18T13:06:15.517Z,8.12
2023-11-18T13:08:42.900Z,8.18
2023-11-18T13:11:17.257Z,8.18
2023-11-18T13:13:47.345Z,8.14
2023-11-18T13:16:15.936Z,8.14
2023-11-18T13:18:45.330Z,8.30
2023-11-18T13:21:15.431Z,8.31
2023-11-18T13:23:43.018Z,8.32
2023-11-18T13:26:10.872Z,7.99
2023-11-18T13:28:40.366Z,7.98
2023-11-18T13:31:11.687Z,7.65
2023-11-18T13:33:39.777Z,7.51
2023-11-18T13:36:07.819Z,7.42
2023-11-18T13:38:34.544Z,7.74
2023-11-18T13:41:04.608Z,7.04
2023-11-18T13:43:43.203Z,7.66
2023-11-18T13:46:14.435Z,7.23
2023-11-18T13:48:41.591Z,7.43
2023-11-18T13:51:13.925Z,7.78
2023-11-18T13:53:42.048Z,8.00
2023-11-18T13:56:10.272Z,8.16
2023-11-18T13:58:39.777Z,8.06
2023-11-18T14:01:08.645Z,8.13
2023-11-18T14:03:39.961Z,8.06
2023-11-18T14:06:18.470Z,8.02
2023-11-18T14:08:45.729Z,7.97
2023-11-18T14:11:16.621Z,8.18
2023-11-18T14:13:44.850Z,8.24
2023-11-18T14:16:13.787Z,8.24
2023-11-18T14:18:43.116Z,8.31
2023-11-18T14:21:10.554Z,8.18
2023-11-18T14:23:38.996Z,8.21
2023-11-18T14:26:07.036Z,8.17
2023-11-18T14:28:35.791Z,8.03
2023-11-18T14:31:05.412Z,7.90
2023-11-18T14:33:34.368Z,7.97
2023-11-18T14:36:02.499Z,7.99
2023-11-18T14:38:32.083Z,7.87
2023-11-18T14:40:59.858Z,7.73
2023-11-18T14:43:26.618Z,7.81
2023-11-18T14:45:53.664Z,7.84
2023-11-18T14:48:20.446Z,7.89
2023-11-18T14:50:49.919Z,7.81
2023-11-18T14:53:20.972Z,7.91
2023-11-18T14:55:47.620Z,7.86
2023-11-18T14:58:14.620Z,7.79
2023-11-18T15:00:41.307Z,7.89
2023-11-18T15:03:08.229Z,7.97
2023-11-18T15:05:35.564Z,7.78
2023-11-18T15:08:02.321Z,8.05
2023-11-18T15:10:30.378Z,7.48
2023-11-18T15:13:02.565Z,7.87
2023-11-18T15:15:34.776Z,7.99
2023-11-18T15:18:06.594Z,7.28
2023-11-18T15:20:35.580Z,7.48
2023-11-18T15:23:05.666Z,6.63
2023-11-18T15:25:35.249Z,5.78
2023-11-18T15:28:02.068Z,7.08
2023-11-18T15:30:28.923Z,7.52
2023-11-18T15:32:55.886Z,7.72
2023-11-18T15:35:23.145Z,7.77
2023-11-18T15:37:51.294Z,6.98
2023-11-18T15:40:21.302Z,7.62
2023-11-18T15:42:49.730Z,7.76
2023-11-18T15:45:18.175Z,7.71
2023-11-18T15:47:45.015Z,7.76
2023-11-18T15:50:17.122Z,7.76
2023-11-18T15:52:45.237Z,7.83
2023-11-18T15:55:15.085Z,7.83
2023-11-18T15:57:42.478Z,7.80
2023-11-18T16:00:21.464Z,7.84
2023-11-18T16:02:49.796Z,7.90
2023-11-18T16:05:21.862Z,7.83
2023-11-18T16:07:52.188Z,7.87
2023-11-18T16:10:22.641Z,7.84
2023-11-18T16:12:52.503Z,7.63
2023-11-18T16:15:20.805Z,7.76
2023-11-18T16:17:48.027Z,7.78
2023-11-18T16:20:18.946Z,7.82
2023-11-18T16:22:50.444Z,7.79
2023-11-18T16:25:19.294Z,7.81
2023-11-18T16:27:49.172Z,7.79
2023-11-18T16:30:18.240Z,7.67
2023-11-18T16:32:50.253Z,7.39
2023-11-18T16:35:17.613Z,6.49
2023-11-18T16:37:44.612Z,6.21
2023-11-18T16:40:15.493Z,6.93
2023-11-18T16:42:42.306Z,7.54
2023-11-18T16:45:12.421Z,7.71
2023-11-18T16:47:40.556Z,7.71
2023-11-18T16:50:10.318Z,7.72
2023-11-18T16:52:37.132Z,7.75
2023-11-18T16:55:04.217Z,7.83
2023-11-18T16:57:31.801Z,7.82
2023-11-18T16:59:59.041Z,7.77
2023-11-18T17:02:25.864Z,7.50
2023-11-18T17:04:53.517Z,7.70
2023-11-18T17:07:23.171Z,7.72
2023-11-18T17:09:49.947Z,7.80
2023-11-18T17:12:16.546Z,7.81
2023-11-18T17:14:43.230Z,7.21
2023-11-18T17:17:10.032Z,7.12
2023-11-18T17:19:39.776Z,7.59
2023-11-18T17:22:09.535Z,7.66
2023-11-18T17:24:39.171Z,7.67
2023-11-18T17:27:07.925Z,7.69
2023-11-18T17:29:34.651Z,7.66
2023-11-18T17:32:01.503Z,7.75
2023-11-18T17:34:29.337Z,7.72
2023-11-18T17:36:56.030Z,7.84
2023-11-18T17:39:24.983Z,7.59
2023-11-18T17:41:53.104Z,7.65
2023-11-18T17:44:19.782Z,7.71
2023-11-18T17:46:46.761Z,7.73
2023-11-18T17:49:13.935Z,7.83
2023-11-18T17:51:40.671Z,7.85
2023-11-18T17:54:07.794Z,7.50
2023-11-18T17:56:34.480Z,7.67
2023-11-18T17:59:02.574Z,7.67
2023-11-18T18:01:29.257Z,7.65
2023-11-18T18:03:55.918Z,7.64
2023-11-18T18:06:22.627Z,7.58
2023-11-18T18:08:49.253Z,7.74
2023-11-18T18:11:17.759Z,7.71
2023-11-18T18:13:45.128Z,7.72
2023-11-18T18:16:15.128Z,7.78
2023-11-18T18:18:41.937Z,7.35
2023-11-18T18:21:08.535Z,7.52
2023-11-18T18:23:35.194Z,7.59
2023-11-18T18:26:01.968Z,7.61
2023-11-18T18:28:28.618Z,7.68
2023-11-18T18:30:55.265Z,7.72
2023-11-18T18:33:23.341Z,7.68
2023-11-18T18:35:49.965Z,7.71
2023-11-18T18:38:16.752Z,7.72
2023-11-18T18:40:43.897Z,7.65
2023-11-18T18:43:11.720Z,7.61
2023-11-18T18:45:38.401Z,7.59
2023-11-18T18:48:05.899Z,7.64
2023-11-18T18:50:38.528Z,7.62
2023-11-18T18:53:05.368Z,7.60
2023-11-18T18:55:32.030Z,7.60
2023-11-18T18:57:58.845Z,7.64
2023-11-18T19:00:25.645Z,7.58
2023-11-18T19:02:53.616Z,7.60
2023-11-18T19:05:24.689Z,7.58
2023-11-18T19:07:56.506Z,7.54
2023-11-18T19:10:23.429Z,7.62
2023-11-18T19:12:50.530Z,7.63
2023-11-18T19:15:17.399Z,7.01
2023-11-18T19:17:45.597Z,7.47
2023-11-18T19:20:15.841Z,7.51
2023-11-18T19:22:43.011Z,7.56
2023-11-18T19:25:13.942Z,7.58
2023-11-18T19:30:13.252Z,7.58
2023-11-18T19:32:40.002Z,7.55
2023-11-18T19:35:07.870Z,7.55
2023-11-18T19:37:34.772Z,7.57
2023-11-18T19:40:06.104Z,7.31
2023-11-18T19:42:34.369Z,7.51
2023-11-18T19:45:01.029Z,7.50
2023-11-18T19:47:29.796Z,7.50
2023-11-18T19:49:58.730Z,7.50
2023-11-18T19:52:25.515Z,7.49
2023-11-18T19:54:52.299Z,7.50
2023-11-18T19:57:18.880Z,7.63
2023-11-18T19:59:47.174Z,7.54
2023-11-18T20:02:14.452Z,7.58
2023-11-18T20:04:42.902Z,7.55
2023-11-18T20:07:09.676Z,5.60
2023-11-18T20:09:36.425Z,6.72
2023-11-18T20:12:04.971Z,7.21
2023-11-18T20:14:32.279Z,6.63
2023-11-18T20:17:00.544Z,6.04
2023-11-18T20:19:30.096Z,7.11
2023-11-18T20:21:58.787Z,7.14
2023-11-18T20:24:25.479Z,7.32
2023-11-18T20:26:52.112Z,7.35
2023-11-18T20:29:18.844Z,6.42
2023-11-18T20:31:45.851Z,6.98
2023-11-18T20:34:13.879Z,6.31
2023-11-18T20:36:41.114Z,6.76
2023-11-18T20:39:08.474Z,7.02
2023-11-18T20:41:35.171Z,7.21
2023-11-18T20:44:02.829Z,7.32
2023-11-18T20:46:29.495Z,6.64
2023-11-18T20:48:56.200Z,7.17
2023-11-18T20:51:24.233Z,7.28
2023-11-18T20:53:51.671Z,7.32
2023-11-18T20:56:20.947Z,7.39
2023-11-18T20:58:48.796Z,6.48
2023-11-18T21:01:16.922Z,7.19
2023-11-18T21:03:44.076Z,7.29
2023-11-18T21:06:11.276Z,7.35
2023-11-18T21:08:39.382Z,7.39
2023-11-18T21:11:08.293Z,7.36
2023-11-18T21:13:39.522Z,7.30
2023-11-18T21:16:07.625Z,7.30
2023-11-18T21:18:34.572Z,7.40
2023-11-18T21:21:03.496Z,7.06
2023-11-18T21:23:31.916Z,7.26
2023-11-18T21:26:00.139Z,7.28
2023-11-18T21:28:26.791Z,7.31
2023-11-18T21:30:54.419Z,7.27
2023-11-18T21:33:22.420Z,7.30
2023-11-18T21:35:50.051Z,7.41
2023-11-18T21:38:16.769Z,7.34
2023-11-18T21:40:43.486Z,7.31
2023-11-18T21:43:12.844Z,7.29
2023-11-18T21:45:39.531Z,7.34
2023-11-18T21:48:07.636Z,7.35
2023-11-18T21:50:34.810Z,7.32
2023-11-18T21:53:03.383Z,7.33
2023-11-18T21:55:30.294Z,7.30
2023-11-18T21:57:56.941Z,7.31
2023-11-18T22:00:25.398Z,7.21
2023-11-18T22:02:53.380Z,7.28
2023-11-18T22:05:20.517Z,7.26
2023-11-18T22:07:47.875Z,7.36
2023-11-18T22:10:19.381Z,6.66
2023-11-18T22:12:46.311Z,7.16
2023-11-18T22:15:17.747Z,7.08
2023-11-18T22:17:46.530Z,7.27
2023-11-18T22:20:15.305Z,7.28
2023-11-18T22:22:42.413Z,7.22
2023-11-18T22:25:09.875Z,7.32
2023-11-18T22:27:40.903Z,7.31
2023-11-18T22:30:09.014Z,7.23
2023-11-18T22:32:38.649Z,7.27
2023-11-18T22:35:08.276Z,6.91
2023-11-18T22:37:35.500Z,6.13
2023-11-18T22:40:02.412Z,6.92
2023-11-18T22:42:34.130Z,7.13
2023-11-18T22:45:00.980Z,6.57
2023-11-18T22:47:27.790Z,6.73
2023-11-18T22:49:54.456Z,6.78
2023-11-18T22:52:22.489Z,6.62
2023-11-18T22:54:49.163Z,7.13
2023-11-18T22:57:15.794Z,7.22
2023-11-18T22:59:42.415Z,6.73
2023-11-18T23:02:12.111Z,7.13
2023-11-18T23:04:38.643Z,7.22
2023-11-18T23:07:06.216Z,7.24
2023-11-18T23:09:34.143Z,7.29
2023-11-18T23:12:00.771Z,7.02
2023-11-18T23:14:29.449Z,7.12
2023-11-18T23:19:41.475Z,7.23
2023-11-18T23:22:14.141Z,7.29
2023-11-18T23:24:42.167Z,7.28
2023-11-18T23:27:09.360Z,6.78
2023-11-18T23:29:36.233Z,7.06
2023-11-18T23:32:03.072Z,7.20
2023-11-18T23:34:29.705Z,7.25
2023-11-18T23:36:56.328Z,7.24
2023-11-18T23:39:29.646Z,7.28
2023-11-18T23:41:58.662Z,7.24
2023-11-18T23:44:25.526Z,7.26
2023-11-18T23:46:53.152Z,7.26
2023-11-18T23:49:20.092Z,7.30
2023-11-18T23:51:47.282Z,7.05
2023-11-18T23:54:14.134Z,7.22
2023-11-18T23:56:40.983Z,7.28
2023-11-18T23:59:09.096Z,7.21
